Het weer levert geen direct gevaar op.    Er zijn geen waarschuwingen afgegeven.


Onweer radar Meer informatie blitzortung!


Regen radar Meer informatie rain snow radar


Bezoek onze andere website:

Template documentation
and downloads

And another site

Forum Leuven-template

EUWEATHER.EU

Verwachtingen Meteociel


U vindt ons ook hier:

Het Weer Aktueel

UK Metoffice

European Weather Network

WeatherCloud

Weather Underground

Benelux Weer Netwerk

AWEKAS

WeatherlinkIP

HAMweather, WeatherForYou, PWS Weather

Wetterpage 24

Wetter.com



METAR rapporten vliegvelden

   
EBAW - Antwerp
Gewijzigd: 19-08-2019 10:50
Gedeeltelijk bewolkt  
Gedeeltelijk bewolkt  
   Wind: ZW 20.4 km/h
Wind: ZW 20.4 km/h
Temperatuur: 18°C
Dauwpunt: 11°C
Vochtigheid: 64%
Barometer: 1015 hPa
Bewolking: Gedeeltelijk bewolkt
Zicht: meer dan 10 km
Bewolking: Gedeeltelijk bewolkt 2800 ft
EBAW 190850Z 23011KT 200V260 9999 SCT028 18/11 Q1015 NOSIG
EBLG - Li├Ęge
Gewijzigd: 19-08-2019 10:50
Licht bewolkt  
Licht bewolkt  
   Wind: WZW 22.2 km/h
Wind: WZW 22.2 km/h
Temperatuur: 18°C
Dauwpunt: 12°C
Vochtigheid: 68%
Barometer: 1017 hPa
Bewolking: Licht bewolkt
Zicht: meer dan 10 km
Bewolking: Licht bewolkt 2500 ft
EBLG 190850Z 24012KT 9999 FEW025 18/12 Q1017 NOSIG
EBCV - Mons/Bergen
Gewijzigd: 19-08-2019 10:55
Licht bewolkt  
Licht bewolkt  
   Wind: ZW 22.2 km/h
Wind: ZW 22.2 km/h
Temperatuur: 18°C
Dauwpunt: 12°C
Vochtigheid: 68%
Barometer: 1016 hPa
Bewolking: Licht bewolkt
Zicht: meer dan 10 km
Bewolking: Licht bewolkt 2100 ft
EBCV 190855Z AUTO 23012KT 9999 FEW021/// 18/12 Q1016 BLU
EHBK - Maastricht
Gewijzigd: 19-08-2019 10:55
Licht bewolkt  
Licht bewolkt  
   Wind: WZW 22.2 km/h
Wind: WZW 22.2 km/h
Temperatuur: 18°C
Dauwpunt: 11°C
Vochtigheid: 64%
Barometer: 1016 hPa
Bewolking: Licht bewolkt
Zicht: meer dan 10 km
Bewolking: Licht bewolkt 2400 ft
EHBK 190855Z AUTO 24012KT 200V280 9999 FEW024 18/11 Q1016 NOSIG
ELLX - Luxemburg
Gewijzigd: 19-08-2019 11:20
Licht bewolkt  
Licht bewolkt  
   Wind: WZW 13 km/h
Wind: WZW 13 km/h
Temperatuur: 19°C
Dauwpunt: 10°C
Vochtigheid: 56%
Barometer: 1018 hPa
Bewolking: Licht bewolkt
Zicht: meer dan 10 km
Bewolking: Licht bewolkt 4000 ft
ELLX 190920Z 24007KT 200V280 9999 FEW040 19/10 Q1018 NOSIG
EBOS - Oostende
Gewijzigd: 19-08-2019 10:50
Buien, Regen, Gedeeltelijk bewolkt  
Buien, Regen, Gedeeltelijk bewolkt  
   Wind: Westen 27.8 km/h<br />Gust to 27.8 km/h
Wind: Westen 27.8 km/h
Gust to 27.8 km/h
Temperatuur: 14°C
Dauwpunt: 12°C
Vochtigheid: 88%
Barometer: 1015 hPa
Bewolking: Gedeeltelijk bewolkt
Zicht: meer dan 10 km
Bewolking: Gedeeltelijk bewolkt 2400 ft
EBOS 190850Z 26015G26KT 9999 -SHRA SCT024TCU 14/12 Q1015 TEMPO 4000 SHRA

Script ontwikkeld door  Saratoga-weather.org Aangepast voor de template door  Weerstation Leuven

Apparatuur in gebruik:

Weerstation
Davis VP2

Weerprogramma
Meteobridge

Weercomputer
Asus WL -330N3G

Webleverancier
Onecom

Davis VP2

Meteobridge

Asus WL -330N3G

Onecom